Impacts METAR Board
IDs:

KMCO - Orlando Intl, FL, US

Updated at: 1600 UTC 20 Aug 2019
Potential Impact None Slight Moderate High
Time 20/04Z 20/05Z 20/06Z 20/07Z 20/08Z 20/09Z 20/10Z 20/11Z 20/12Z 20/13Z 20/14Z 20/15Z 20/16Z
Temp81 80 79 77 77 75 76 75 77 81 84 86 89
Dewpt74 75 74 74 71 71 71 72 74 76 74 72 71
Altim30.12 30.11 30.10 30.08 30.06 30.06 30.07 30.09 30.10 30.12 30.12 30.13 30.13
VIS10 10 10 10 10 10 10 10 10 10 10 10 10
CIG-- -- -- -- -- -- -- -- -- -- -- -- --
CoverSCTSCTSCTFEWFEWFEWSCTSCTSCTSCTSCTSCTSCT
FltCatVFRVFRVFRVFRVFRVFRVFRVFRVFRVFRVFRVFRVFR
WX--------------------------
WDir9013070070330607070110120130120
WSpd4 3 5 0 3 4 4 4 5 7 9 8 11
WGst-- -- -- -- -- -- -- -- -- -- -- -- 15
Raw hourly METARs
KMCO 200353Z 09004KT 10SM FEW015 FEW100 SCT250 27/23 A3012 RMK AO2 SLP198 T02720233
KMCO 200453Z 13003KT 10SM FEW020 FEW100 SCT250 27/24 A3011 RMK AO2 LTG DSNT E SLP193 CB DSNT E T02670239 403330244
KMCO 200553Z 07005KT 10SM FEW024 FEW100 SCT250 26/23 A3010 RMK AO2 SLP190 T02610233 10278 20256 58006
KMCO 200653Z 00000KT 10SM FEW100 FEW250 25/23 A3008 RMK AO2 SLP185 T02500233
KMCO 200753Z 07003KT 10SM FEW250 25/22 A3006 RMK AO2 SLP179 T02500217
KMCO 200853Z 33004KT 10SM FEW250 24/22 A3006 RMK AO2 SLP177 T02390217 56013
KMCO 200953Z 06004KT 10SM SCT250 24/22 A3007 RMK AO2 SLP180 T02440217
KMCO 201053Z 07004KT 10SM FEW030 FEW170 SCT250 24/22 A3009 RMK AO2 SLP187 T02390222
KMCO 201153Z 07005KT 10SM FEW018 FEW150 SCT250 25/23 A3010 RMK AO2 SLP192 T02500233 10261 20239 53015
KMCO 201253Z 11007KT 10SM FEW015 SCT250 27/24 A3012 RMK AO2 SLP197 T02720244
KMCO 201353Z 12009KT 10SM FEW021 SCT250 29/23 A3012 RMK AO2 SLP197 T02890233
KMCO 201453Z 13008KT 10SM FEW028 SCT250 30/22 A3013 RMK AO2 SLP200 T03000222 51007
KMCO 201553Z 12011G15KT 10SM SCT037 SCT250 32/22 A3013 RMK AO2 SLP200 T03170217



Page loaded:  16:52 UTC  |   09:52 AM Pacific  |   10:52 AM Mountain  |   11:52 AM Central  |   12:52 PM Eastern

 

ADVISORIES

FORECASTS

FORECASTS

OBSERVATIONS

USER TOOLS

ABOUT US